Terminal Aerodrome Forecast
Issued by NWS

Home | Current Version | Previous Version | Text Only | Print | Product List | Glossary On
Versions: 1 2 3 4 5 6 7 8 9 10 11 12 13 14 15 16 17 18 19 20 21 22 23 24 25 26 27 28 29
000
FTUS45 KBOU 200441 AAC
TAFBJC
TAF AMD
KBJC 200441Z 2005/2024 26010KT P6SM FEW150 SCT200
      TEMPO 2005/2008 29012G22KT
     FM200800 26018G28KT P6SM FEW130 BKN200
     FM201200 27020G30KT P6SM FEW130 SCT220
     FM202000 29025G35KT P6SM FEW130 SCT220=

USA.gov is the U.S. government's official web portal to all federal, state and local government web resources and services.